createdAt,value
2023-11-03T00:04:04.326Z,97721.16
2023-11-03T00:09:10.131Z,97716.91
2023-11-03T00:14:13.903Z,97717.56
2023-11-03T00:19:20.895Z,97706.28
2023-11-03T00:24:28.623Z,97701.81
2023-11-03T00:29:34.704Z,97702.94
2023-11-03T00:34:39.195Z,97705.63
2023-11-03T00:39:44.752Z,97697.69
2023-11-03T00:44:47.752Z,97697.56
2023-11-03T00:49:55.335Z,97695.03
2023-11-03T00:54:58.209Z,97692.69
2023-11-03T01:00:01.848Z,97693.41
2023-11-03T01:05:15.416Z,97697.63
2023-11-03T01:10:18.551Z,97694.88
2023-11-03T01:15:22.638Z,97701.06
2023-11-03T01:20:29.280Z,97700.25
2023-11-03T01:25:33.058Z,97694.75
2023-11-03T01:30:35.899Z,97698.44
2023-11-03T01:35:42.511Z,97695.66
2023-11-03T01:40:46.560Z,97697.50
2023-11-03T01:45:49.418Z,97705.25
2023-11-03T01:50:53.596Z,97699.00
2023-11-03T01:55:57.012Z,97701.47
2023-11-03T02:01:00.028Z,97687.63
2023-11-03T02:06:05.080Z,97682.25
2023-11-03T02:11:08.378Z,97679.72
2023-11-03T02:16:11.409Z,97685.59
2023-11-03T02:21:16.168Z,97690.03
2023-11-03T02:26:20.308Z,97684.31
2023-11-03T02:31:23.137Z,97676.25
2023-11-03T02:36:26.511Z,97669.28
2023-11-03T02:41:30.678Z,97671.19
2023-11-03T02:46:33.514Z,97676.31
2023-11-03T02:51:36.289Z,97692.63
2023-11-03T02:56:40.518Z,97698.03
2023-11-03T03:01:43.477Z,97690.94
2023-11-03T03:06:47.352Z,97692.16
2023-11-03T03:11:51.563Z,97687.63
2023-11-03T03:16:54.697Z,97687.22
2023-11-03T03:21:57.604Z,97681.81
2023-11-03T03:27:01.825Z,97668.66
2023-11-03T03:32:05.081Z,97669.56
2023-11-03T03:37:07.853Z,97655.63
2023-11-03T03:42:12.241Z,97638.91
2023-11-03T03:47:15.346Z,97650.19
2023-11-03T03:52:18.147Z,97654.41
2023-11-03T03:57:22.319Z,97655.22
2023-11-03T04:02:25.214Z,97660.72
2023-11-03T04:07:28.042Z,97653.81
2023-11-03T04:12:32.185Z,97642.56
2023-11-03T04:17:35.097Z,97643.13
2023-11-03T04:22:38.409Z,97638.97
2023-11-03T04:27:43.095Z,97662.75
2023-11-03T04:32:46.024Z,97647.53
2023-11-03T04:37:51.060Z,97632.69
2023-11-03T04:42:55.280Z,97629.47
2023-11-03T04:47:58.180Z,97620.63
2023-11-03T04:53:01.003Z,97618.06
2023-11-03T04:58:05.316Z,97621.25
2023-11-03T05:03:08.278Z,97627.66
2023-11-03T05:08:11.331Z,97649.25
2023-11-03T05:13:17.088Z,97656.19
2023-11-03T05:18:20.021Z,97658.91
2023-11-03T05:23:22.886Z,97657.72
2023-11-03T05:28:27.112Z,97656.50
2023-11-03T05:33:30.048Z,97653.47
2023-11-03T05:38:32.987Z,97654.63
2023-11-03T05:43:38.138Z,97663.22
2023-11-03T05:48:40.998Z,97656.94
2023-11-03T05:53:43.845Z,97655.56
2023-11-03T05:58:48.189Z,97662.28
2023-11-03T06:03:51.255Z,97661.03
2023-11-03T06:08:54.170Z,97664.69
2023-11-03T06:13:58.412Z,97657.41
2023-11-03T06:19:01.292Z,97664.88
2023-11-03T06:24:04.232Z,97681.38
2023-11-03T06:29:08.426Z,97675.53
2023-11-03T06:34:11.325Z,97687.53
2023-11-03T06:39:16.243Z,97695.72
2023-11-03T06:44:20.589Z,97701.50
2023-11-03T06:49:23.580Z,97702.31
2023-11-03T06:54:27.538Z,97710.94
2023-11-03T06:59:32.018Z,97718.03
2023-11-03T07:04:36.110Z,97729.34
2023-11-03T07:09:38.938Z,97737.41
2023-11-03T07:14:43.150Z,97738.75
2023-11-03T07:19:46.211Z,97746.56
2023-11-03T07:24:49.153Z,97757.22
2023-11-03T07:29:53.604Z,97772.22
2023-11-03T07:34:56.401Z,97776.38
2023-11-03T07:39:59.574Z,97770.38
2023-11-03T07:45:03.970Z,97779.03
2023-11-03T07:50:08.495Z,97770.31
2023-11-03T07:55:12.866Z,97768.56
2023-11-03T08:00:21.184Z,97764.53
2023-11-03T08:05:25.778Z,97758.38
2023-11-03T08:10:28.763Z,97764.53
2023-11-03T08:15:33.921Z,97766.31
2023-11-03T08:20:36.744Z,97766.25
2023-11-03T08:25:39.831Z,97777.41
2023-11-03T08:30:44.036Z,97786.97
2023-11-03T08:35:47.212Z,97796.50
2023-11-03T08:40:51.077Z,97795.44
2023-11-03T08:45:55.357Z,97801.72
2023-11-03T08:50:58.873Z,97815.38
2023-11-03T08:56:03.070Z,97821.09
2023-11-03T09:01:08.167Z,97831.69
2023-11-03T09:06:13.243Z,97836.19
2023-11-03T09:11:17.078Z,97848.28
2023-11-03T09:16:22.224Z,97864.59
2023-11-03T09:21:28.009Z,97856.31
2023-11-03T09:26:31.247Z,97852.59
2023-11-03T09:31:35.456Z,97862.41
2023-11-03T09:36:39.254Z,97866.97
2023-11-03T09:41:49.851Z,97865.63
2023-11-03T09:46:55.836Z,97872.94
2023-11-03T09:52:04.354Z,97876.88
2023-11-03T09:57:09.557Z,97883.88
2023-11-03T10:02:20.418Z,97895.94
2023-11-03T10:07:28.623Z,97893.88
2023-11-03T10:12:34.204Z,97891.91
2023-11-03T10:17:38.600Z,97893.72
2023-11-03T10:22:41.568Z,97889.97
2023-11-03T10:27:52.804Z,97883.53
2023-11-03T10:32:57.661Z,97889.81
2023-11-03T10:38:02.351Z,97884.59
2023-11-03T10:43:08.966Z,97894.25
2023-11-03T10:48:20.366Z,97896.28
2023-11-03T10:53:29.873Z,97897.81
2023-11-03T10:58:34.441Z,97895.34
2023-11-03T11:03:46.918Z,97907.59
2023-11-03T11:08:52.648Z,97916.00
2023-11-03T11:13:55.631Z,97923.22
2023-11-03T11:19:03.667Z,97930.13
2023-11-03T11:24:08.149Z,97943.28
2023-11-03T11:29:25.584Z,97943.34
2023-11-03T11:34:29.958Z,97955.41
2023-11-03T11:39:32.755Z,97959.84
2023-11-03T11:44:36.373Z,97970.28
2023-11-03T11:49:41.648Z,97963.16
2023-11-03T11:54:45.100Z,97959.78
2023-11-03T11:59:51.733Z,97966.81
2023-11-03T12:04:57.041Z,97963.97
2023-11-03T12:09:59.941Z,97960.75
2023-11-03T12:15:03.980Z,97953.88
2023-11-03T12:20:14.428Z,97953.88
2023-11-03T12:25:17.497Z,97960.72
2023-11-03T12:30:21.610Z,97962.56
2023-11-03T12:35:28.749Z,97960.81
2023-11-03T12:40:31.786Z,97961.69
2023-11-03T12:45:34.674Z,97971.28
2023-11-03T12:50:40.697Z,97990.25
2023-11-03T12:55:46.254Z,97993.75
2023-11-03T13:00:50.900Z,98007.72
2023-11-03T13:05:55.208Z,98023.34
2023-11-03T13:10:58.118Z,98041.47
2023-11-03T13:16:01.954Z,98046.56
2023-11-03T13:21:06.989Z,98051.13
2023-11-03T13:26:10.881Z,98055.66
2023-11-03T13:31:14.275Z,98060.00
2023-11-03T13:36:18.599Z,98055.63
2023-11-03T13:41:21.694Z,98055.59
2023-11-03T13:46:24.604Z,98058.19
2023-11-03T13:51:30.131Z,98055.56
2023-11-03T13:56:33.026Z,98063.38
2023-11-03T14:01:37.572Z,98064.75
2023-11-03T14:06:42.479Z,98058.75
2023-11-03T14:11:49.335Z,98050.09
2023-11-03T14:16:52.590Z,98052.59
2023-11-03T14:21:56.822Z,98043.03
2023-11-03T14:26:59.902Z,98040.22
2023-11-03T14:32:02.867Z,98043.84
2023-11-03T14:37:11.435Z,98039.41
2023-11-03T14:42:15.678Z,98036.00
2023-11-03T14:47:18.571Z,98040.19
2023-11-03T14:52:23.089Z,98045.38
2023-11-03T14:57:25.940Z,98041.97
2023-11-03T15:02:29.121Z,98048.97
2023-11-03T15:07:33.930Z,98054.88
2023-11-03T15:12:39.733Z,98055.78
2023-11-03T15:17:45.355Z,98073.06
2023-11-03T15:22:51.528Z,98065.03
2023-11-03T15:27:54.495Z,98085.69
2023-11-03T15:32:57.453Z,98105.78
2023-11-03T15:38:01.842Z,98111.84
2023-11-03T15:43:04.796Z,98124.50
2023-11-03T15:48:08.143Z,98131.91
2023-11-03T15:53:17.074Z,98143.75
2023-11-03T15:58:20.744Z,98166.22
2023-11-03T16:03:23.994Z,98171.03
2023-11-03T16:08:28.569Z,98177.56
2023-11-03T16:13:31.847Z,98193.56
2023-11-03T16:18:34.861Z,98202.91
2023-11-03T16:23:39.708Z,98208.47
2023-11-03T16:28:42.670Z,98215.59
2023-11-03T16:33:45.577Z,98213.50
2023-11-03T16:38:53.681Z,98233.97
2023-11-03T16:43:57.004Z,98224.06
2023-11-03T16:49:00.125Z,98233.78
2023-11-03T16:54:04.504Z,98242.31
2023-11-03T16:59:08.082Z,98239.50
2023-11-03T17:04:11.731Z,98247.88
2023-11-03T17:09:20.945Z,98246.41
2023-11-03T17:14:23.941Z,98243.72
2023-11-03T17:19:26.976Z,98237.16
2023-11-03T17:24:31.575Z,98231.81
2023-11-03T17:29:36.858Z,98226.28
2023-11-03T17:34:39.874Z,98213.09
2023-11-03T17:39:47.754Z,98202.53
2023-11-03T17:44:51.803Z,98194.84
2023-11-03T17:49:54.712Z,98194.38
2023-11-03T17:54:59.343Z,98205.56
2023-11-03T18:00:04.464Z,98205.34
2023-11-03T18:05:16.856Z,98196.59
2023-11-03T18:10:23.082Z,98197.25
2023-11-03T18:15:25.984Z,98199.38
2023-11-03T18:20:29.990Z,98196.19
2023-11-03T18:25:34.334Z,98184.38
2023-11-03T18:30:37.683Z,98179.94
2023-11-03T18:35:40.802Z,98189.41
2023-11-03T18:40:45.449Z,98173.59
2023-11-03T18:45:48.400Z,98158.25
2023-11-03T18:51:24.767Z,98152.72
2023-11-03T18:57:44.521Z,98157.78
2023-11-03T19:02:18.491Z,98165.81
2023-11-03T19:07:32.593Z,98171.88
2023-11-03T19:12:34.205Z,98174.03
2023-11-03T19:17:39.557Z,98180.84
2023-11-03T19:22:43.283Z,98179.38
2023-11-03T19:27:47.776Z,98184.75
2023-11-03T19:32:51.371Z,98199.91
2023-11-03T19:37:54.341Z,98214.41
2023-11-03T19:42:58.552Z,98234.94
2023-11-03T19:48:01.447Z,98231.34
2023-11-03T19:53:04.502Z,98241.47
2023-11-03T19:58:09.993Z,98240.44
2023-11-03T20:03:12.974Z,98249.75
2023-11-03T20:08:17.289Z,98255.53
2023-11-03T20:13:21.603Z,98259.44
2023-11-03T20:18:24.726Z,98280.16
2023-11-03T20:23:30.295Z,98288.91
2023-11-03T20:28:34.648Z,98292.00
2023-11-03T20:33:37.590Z,98284.84
2023-11-03T20:38:40.448Z,98287.91
2023-11-03T20:43:44.901Z,98299.25
2023-11-03T20:48:49.080Z,98288.25
2023-11-03T20:53:52.107Z,98290.09
2023-11-03T20:58:56.305Z,98274.94
2023-11-03T21:03:59.278Z,98283.81
2023-11-03T21:09:02.272Z,98293.03
2023-11-03T21:14:06.477Z,98299.38
2023-11-03T21:19:09.676Z,98302.88
2023-11-03T21:24:12.556Z,98287.19
2023-11-03T21:29:19.275Z,98295.72
2023-11-03T21:34:22.185Z,98296.00
2023-11-03T21:39:25.702Z,98303.34
2023-11-03T21:44:30.724Z,98288.00
2023-11-03T21:49:33.600Z,98286.44
2023-11-03T21:54:39.655Z,98285.47
2023-11-03T21:59:43.832Z,98293.75
2023-11-03T22:04:46.810Z,98297.53
2023-11-03T22:09:49.836Z,98292.03
2023-11-03T22:14:54.146Z,98290.91
2023-11-03T22:19:56.963Z,98292.41
2023-11-03T22:24:59.796Z,98301.22
2023-11-03T22:30:04.078Z,98299.38
2023-11-03T22:35:07.156Z,98305.44
2023-11-03T22:40:12.772Z,98311.63
2023-11-03T22:45:17.406Z,98301.50
2023-11-03T22:50:20.436Z,98306.06
2023-11-03T22:55:23.582Z,98307.59
2023-11-03T23:00:31.416Z,98314.06
2023-11-03T23:05:40.445Z,98314.06
2023-11-03T23:10:44.495Z,98322.00
2023-11-03T23:15:48.728Z,98323.78
2023-11-03T23:20:51.497Z,98326.78
2023-11-03T23:25:54.512Z,98331.47
2023-11-03T23:30:58.648Z,98332.41
2023-11-03T23:36:01.500Z,98331.41
2023-11-03T23:41:04.841Z,98323.16
2023-11-03T23:46:10.998Z,98323.38
2023-11-03T23:51:13.939Z,98320.66
2023-11-03T23:56:16.777Z,98323.59
